Time;durP1;ratioP1;P1;durP2;ratioP2;P2;SDS_P1;SDS_P2;PMS_P1;PMS_P2;Temp;Humidity;BMP_temperature;BMP_pressure;BME280_temperature;BME280_humidity;BME280_pressure;Samples;Min_cycle;Max_cycle;Signal;HPM_P1;HPM_P2
2022/07/01 00:00:55;;;;;;;5.70;4.03;;;15.70;94.90;;;;;;2054262;28;20106;-90
2022/07/01 00:02:14;;;;;;;5.43;3.85;;;15.70;94.90;;;;;;2062913;28;20035;-90
2022/07/01 00:03:34;;;;;;;4.90;3.88;;;15.70;94.90;;;;;;2048616;28;20122;-90
2022/07/01 00:04:53;;;;;;;5.88;4.05;;;15.70;94.90;;;;;;2054048;28;20039;-90
2022/07/01 00:06:12;;;;;;;5.28;4.10;;;15.70;94.90;;;;;;2048842;29;20129;-90
2022/07/01 00:07:31;;;;;;;4.82;3.55;;;15.70;94.90;;;;;;2040942;29;20521;-89
2022/07/01 00:08:50;;;;;;;5.72;4.07;;;15.70;94.90;;;;;;2040382;29;20055;-90
2022/07/01 00:10:10;;;;;;;5.15;3.67;;;15.70;94.90;;;;;;2045789;29;20498;-90
2022/07/01 00:11:29;;;;;;;4.88;3.85;;;15.80;94.90;;;;;;2045976;29;20043;-90
2022/07/01 00:12:48;;;;;;;5.75;4.40;;;15.70;95.10;;;;;;2045603;29;20051;-89
2022/07/01 00:14:07;;;;;;;5.70;4.25;;;15.70;94.90;;;;;;2053298;28;20504;-89
2022/07/01 00:15:27;;;;;;;5.32;4.13;;;15.70;94.90;;;;;;2065192;28;20060;-90
2022/07/01 00:16:46;;;;;;;5.70;4.20;;;15.80;94.90;;;;;;2064707;28;20035;-89
2022/07/01 00:18:05;;;;;;;5.97;4.45;;;15.70;94.90;;;;;;2057527;28;20473;-90
2022/07/01 00:19:27;;;;;;;5.55;4.38;;;15.70;95.00;;;;;;2057456;28;20498;-90
2022/07/01 00:20:46;;;;;;;5.43;4.53;;;15.70;94.80;;;;;;2056836;28;20043;-90
2022/07/01 00:22:07;;;;;;;5.50;4.38;;;15.80;94.90;;;;;;2056464;28;20370;-89
2022/07/01 00:23:27;;;;;;;5.43;4.43;;;15.80;94.90;;;;;;2048899;29;20563;-89
2022/07/01 00:24:48;;;;;;;6.93;4.43;;;15.70;94.90;;;;;;2045505;28;20039;-89
2022/07/01 00:26:08;;;;;;;6.22;4.68;;;15.70;94.80;;;;;;2046199;29;20055;-90
2022/07/01 00:27:27;;;;;;;6.00;4.40;;;15.70;94.90;;;;;;2043473;29;20035;-89
2022/07/01 00:28:46;;;;;;;6.13;4.50;;;15.80;94.90;;;;;;2050939;28;20050;-89
2022/07/01 00:30:07;;;;;;;6.05;4.38;;;15.70;94.90;;;;;;2057451;28;20138;-89
2022/07/01 00:31:26;;;;;;;;;;;15.70;94.90;;;;;;2049570;29;20047;-89
2022/07/01 00:32:46;;;;;;;4.93;3.75;;;15.70;94.80;;;;;;2053578;28;19910;-90
2022/07/01 00:34:05;;;;;;;5.38;4.30;;;15.70;94.80;;;;;;2035559;29;20099;-89
2022/07/01 00:35:25;;;;;;;7.10;4.43;;;15.70;94.80;;;;;;2047334;28;20031;-90
2022/07/01 00:36:44;;;;;;;6.28;4.47;;;15.70;94.80;;;;;;2054314;28;20035;-90
2022/07/01 00:38:04;;;;;;;6.15;4.65;;;15.70;94.80;;;;;;2063311;28;20046;-90
2022/07/01 00:39:23;;;;;;;5.80;4.80;;;15.70;94.80;;;;;;2057900;28;20513;-90
2022/07/01 00:40:42;;;;;;;5.80;4.65;;;15.70;94.80;;;;;;2061766;28;20472;-90
2022/07/01 00:42:04;;;;;;;7.03;4.95;;;15.70;94.80;;;;;;2056948;28;20194;-89
2022/07/01 00:43:24;;;;;;;6.32;4.50;;;15.60;94.80;;;;;;2062467;28;20042;-89
2022/07/01 00:44:43;;;;;;;6.20;4.85;;;15.60;95.10;;;;;;2065470;28;20038;-90
2022/07/01 00:46:02;;;;;;;5.82;4.60;;;15.60;94.80;;;;;;2049169;28;20056;-90
2022/07/01 00:47:24;;;;;;;6.43;5.03;;;15.60;94.80;;;;;;2054001;28;20638;-90
2022/07/01 00:48:44;;;;;;;6.63;5.22;;;15.60;94.80;;;;;;2058879;28;20409;-90
2022/07/01 00:50:07;;;;;;;6.00;4.65;;;15.60;94.80;;;;;;2059105;28;20094;-89
2022/07/01 00:51:28;;;;;;;6.28;4.82;;;15.60;94.80;;;;;;2055470;28;20114;-89
2022/07/01 00:52:47;;;;;;;5.97;4.72;;;15.50;94.80;;;;;;2050114;29;20051;-89
2022/07/01 00:54:07;;;;;;;6.10;5.05;;;15.50;94.90;;;;;;2055194;28;20051;-89
2022/07/01 00:55:26;;;;;;;6.20;4.88;;;15.50;94.90;;;;;;2054921;28;20035;-89
2022/07/01 00:56:47;;;;;;;6.32;5.22;;;15.50;94.90;;;;;;2042382;29;20131;-90
2022/07/01 00:58:07;;;;;;;6.53;5.22;;;15.50;94.90;;;;;;2044443;29;20043;-89
2022/07/01 00:59:28;;;;;;;6.25;4.95;;;15.50;94.90;;;;;;2039682;29;20442;-90
2022/07/01 01:00:47;;;;;;;5.93;4.85;;;15.50;94.90;;;;;;2052754;28;20035;-90
2022/07/01 01:02:07;;;;;;;5.85;4.93;;;15.50;95.20;;;;;;2058716;28;20043;-89
2022/07/01 01:03:27;;;;;;;6.03;4.95;;;15.50;95.10;;;;;;2058258;28;20054;-89
2022/07/01 01:04:47;;;;;;;6.18;5.22;;;15.50;95.20;;;;;;2058538;28;20050;-89
2022/07/01 01:06:08;;;;;;;7.13;4.82;;;15.50;94.90;;;;;;2052330;28;20034;-89
2022/07/01 01:07:28;;;;;;;5.82;4.53;;;15.50;94.90;;;;;;2044326;29;20134;-89
2022/07/01 01:08:48;;;;;;;5.82;4.60;;;15.50;94.90;;;;;;2055207;28;20039;-90
2022/07/01 01:10:09;;;;;;;6.35;5.03;;;15.50;94.90;;;;;;2055183;28;20051;-90
2022/07/01 01:11:28;;;;;;;7.32;5.03;;;15.50;94.90;;;;;;2055217;28;20038;-89
2022/07/01 01:12:47;;;;;;;7.40;5.40;;;15.50;94.90;;;;;;2054916;28;20039;-89
2022/07/01 01:14:06;;;;;;;8.18;6.57;;;15.50;94.90;;;;;;2057678;28;20086;-90
2022/07/01 01:15:27;;;;;;;7.38;5.93;;;15.50;94.90;;;;;;2063070;28;20043;-89
2022/07/01 01:16:46;;;;;;;7.35;6.07;;;15.50;94.90;;;;;;2053912;28;20039;-90
2022/07/01 01:18:06;;;;;;;8.40;6.65;;;15.50;94.90;;;;;;2055184;28;20039;-90
2022/07/01 01:19:26;;;;;;;9.43;6.88;;;15.50;94.90;;;;;;2063685;28;20405;-90
2022/07/01 01:20:45;;;;;;;8.15;6.47;;;15.50;94.90;;;;;;2050174;29;20049;-90
2022/07/01 01:22:04;;;;;;;9.20;7.22;;;15.50;94.90;;;;;;2044098;29;20122;-90
2022/07/01 01:23:23;;;;;;;9.73;7.43;;;15.50;94.90;;;;;;2051854;28;20121;-90
2022/07/01 01:24:44;;;;;;;11.10;8.38;;;15.50;95.00;;;;;;2054648;28;20050;-89
2022/07/01 01:26:03;;;;;;;9.82;7.90;;;15.50;95.00;;;;;;2055850;28;20023;-90
2022/07/01 01:27:22;;;;;;;12.52;9.77;;;15.50;94.90;;;;;;2062867;28;20153;-90
2022/07/01 01:28:42;;;;;;;13.63;10.20;;;15.50;95.00;;;;;;2054330;28;20047;-90
2022/07/01 01:30:01;;;;;;;13.75;10.20;;;15.50;94.90;;;;;;2063643;28;20035;-90
2022/07/01 01:31:35;;;;;;;15.27;11.32;;;15.50;94.90;;;;;;2050185;29;20535;-89
2022/07/01 01:32:55;;;;;;;13.20;10.73;;;15.50;95.00;;;;;;2055602;28;20118;-90
2022/07/01 01:34:14;;;;;;;13.32;11.15;;;15.50;94.90;;;;;;2064252;28;20043;-89
2022/07/01 01:35:34;;;;;;;13.80;11.13;;;15.40;94.90;;;;;;2062880;28;20039;-89
2022/07/01 01:36:53;;;;;;;15.38;12.43;;;15.40;95.00;;;;;;2058569;28;20382;-89
2022/07/01 01:38:13;;;;;;;16.48;11.88;;;15.40;95.00;;;;;;2063452;28;20046;-90
2022/07/01 01:39:32;;;;;;;15.95;12.98;;;15.40;95.00;;;;;;2066709;28;20042;-89
2022/07/01 01:40:52;;;;;;;15.23;13.00;;;15.40;95.00;;;;;;2066551;28;20448;-90
2022/07/01 01:42:11;;;;;;;17.50;13.93;;;15.40;95.00;;;;;;2054849;28;20490;-90
2022/07/01 01:43:34;;;;;;;16.38;13.27;;;15.30;95.00;;;;;;2049304;29;20099;-89
2022/07/01 01:44:54;;;;;;;15.18;12.95;;;15.30;95.00;;;;;;2052622;29;20174;-90
2022/07/01 01:46:13;;;;;;;16.35;13.30;;;15.40;95.00;;;;;;2058835;28;20031;-90
2022/07/01 01:47:33;;;;;;;17.50;13.73;;;15.30;95.00;;;;;;2072735;28;20042;-90
2022/07/01 01:48:52;;;;;;;16.55;13.70;;;15.30;95.00;;;;;;2054578;28;20043;-89
2022/07/01 01:50:13;;;;;;;17.27;13.70;;;15.30;95.00;;;;;;2040946;29;20047;-91
2022/07/01 01:51:33;;;;;;;17.58;14.32;;;15.30;95.00;;;;;;2040609;29;20039;-90
2022/07/01 01:52:52;;;;;;;18.48;15.38;;;15.30;95.00;;;;;;2054087;28;20117;-90
2022/07/01 01:54:11;;;;;;;17.35;14.75;;;15.30;95.00;;;;;;2037855;29;20048;-90
2022/07/01 01:55:31;;;;;;;16.58;13.90;;;15.30;95.00;;;;;;2044003;29;20043;-90
2022/07/01 01:56:50;;;;;;;16.67;14.13;;;15.20;95.00;;;;;;2054854;28;20046;-90
2022/07/01 01:58:09;;;;;;;17.70;14.40;;;15.30;95.00;;;;;;2052770;28;20475;-91
2022/07/01 01:59:28;;;;;;;17.90;14.95;;;15.20;94.90;;;;;;2053998;28;20038;-90
2022/07/01 02:00:47;;;;;;;17.13;14.73;;;15.20;95.00;;;;;;2049934;29;20150;-89
2022/07/01 02:02:07;;;;;;;18.60;15.15;;;15.20;95.00;;;;;;2047865;28;20122;-90
2022/07/01 02:03:26;;;;;;;17.25;14.80;;;15.20;95.00;;;;;;2047027;29;20043;-90
2022/07/01 02:04:45;;;;;;;17.05;15.07;;;15.20;95.00;;;;;;2041956;29;20044;-90
2022/07/01 02:06:06;;;;;;;17.63;14.90;;;15.20;95.00;;;;;;2055609;28;20038;-89
2022/07/01 02:07:26;;;;;;;17.92;14.85;;;15.10;95.00;;;;;;2049650;29;20062;-90
2022/07/01 02:08:45;;;;;;;17.75;14.73;;;15.10;95.00;;;;;;2046243;29;20043;-90
2022/07/01 02:10:06;;;;;;;17.30;14.98;;;15.10;95.00;;;;;;2038857;29;20043;-90
2022/07/01 02:11:25;;;;;;;17.20;14.30;;;15.20;95.10;;;;;;2049233;28;20043;-90
2022/07/01 02:12:44;;;;;;;17.55;14.93;;;15.10;95.00;;;;;;2046701;29;20043;-90
2022/07/01 02:14:03;;;;;;;17.55;14.15;;;15.20;95.00;;;;;;2051472;28;20525;-89
2022/07/01 02:15:23;;;;;;;17.70;14.93;;;15.20;95.00;;;;;;2058131;28;20047;-90
2022/07/01 02:16:42;;;;;;;17.75;15.82;;;15.20;95.00;;;;;;2042602;29;20139;-90
2022/07/01 02:18:01;;;;;;;17.23;14.77;;;15.20;95.00;;;;;;2041921;29;20048;-90
2022/07/01 02:19:20;;;;;;;16.63;14.60;;;15.20;95.00;;;;;;2051050;28;20038;-90
2022/07/01 02:20:41;;;;;;;17.75;15.15;;;15.20;95.00;;;;;;2057030;28;20046;-90
2022/07/01 02:22:00;;;;;;;16.92;14.75;;;15.20;95.00;;;;;;2054609;28;20051;-90
2022/07/01 02:23:20;;;;;;;17.55;15.25;;;15.20;95.00;;;;;;2058003;28;20043;-90
2022/07/01 02:24:39;;;;;;;17.25;14.75;;;15.20;95.00;;;;;;2058266;28;20031;-89
2022/07/01 02:25:58;;;;;;;17.45;15.07;;;15.20;95.00;;;;;;2057786;28;20046;-89
2022/07/01 02:27:18;;;;;;;17.88;14.77;;;15.20;95.00;;;;;;2054486;28;20393;-89
2022/07/01 02:28:38;;;;;;;18.30;15.55;;;15.20;95.00;;;;;;2058223;28;20043;-89
2022/07/01 02:29:57;;;;;;;18.55;14.93;;;15.20;95.00;;;;;;2049762;29;20043;-89
2022/07/01 02:31:16;;;;;;;17.13;14.05;;;15.20;95.00;;;;;;2048194;29;20047;-89
2022/07/01 02:32:35;;;;;;;16.65;14.73;;;15.20;95.00;;;;;;2059529;28;20038;-88
2022/07/01 02:33:55;;;;;;;18.52;15.52;;;15.20;95.30;;;;;;2043513;28;20055;-90
2022/07/01 02:35:14;;;;;;;17.15;14.85;;;15.20;95.00;;;;;;2059422;28;20038;-89
2022/07/01 02:36:33;;;;;;;16.17;14.20;;;15.20;94.90;;;;;;2057599;28;20050;-89
2022/07/01 02:37:53;;;;;;;19.40;15.82;;;15.20;94.90;;;;;;2054888;28;20414;-89
2022/07/01 02:39:12;;;;;;;16.90;15.00;;;15.20;94.90;;;;;;2052350;28;20206;-90
2022/07/01 02:40:33;;;;;;;17.00;14.80;;;15.10;94.90;;;;;;2058830;28;20043;-89
2022/07/01 02:43:30;;;;;;;16.83;14.27;;;15.10;94.90;;;;;;2056899;29;20027;-91
2022/07/01 02:44:50;;;;;;;18.33;14.63;;;15.00;94.90;;;;;;2050360;29;20035;-89
2022/07/01 02:46:09;;;;;;;17.55;14.88;;;15.00;95.10;;;;;;2057322;28;20042;-90
2022/07/01 02:47:36;;;;;;;16.52;14.52;;;15.00;94.90;;;;;;2054337;28;20042;-89
2022/07/01 02:48:55;;;;;;;15.48;13.77;;;15.00;94.90;;;;;;2057923;28;20513;-90
2022/07/01 02:50:14;;;;;;;15.80;13.77;;;15.00;94.90;;;;;;2056366;28;20047;-90
2022/07/01 02:51:34;;;;;;;15.85;13.63;;;15.00;94.90;;;;;;2054280;28;20034;-90
2022/07/01 02:52:53;;;;;;;16.02;14.25;;;15.00;95.00;;;;;;2054253;28;20067;-90
2022/07/01 02:54:13;;;;;;;16.23;13.60;;;14.90;94.90;;;;;;2054595;28;20047;-89
2022/07/01 02:55:32;;;;;;;15.90;13.50;;;14.90;94.90;;;;;;2057962;28;20035;-90
2022/07/01 02:56:51;;;;;;;15.05;12.60;;;14.90;94.90;;;;;;2049952;29;20047;-88
2022/07/01 02:58:10;;;;;;;15.40;12.95;;;14.90;94.90;;;;;;2052684;28;20035;-89
2022/07/01 02:59:29;;;;;;;15.30;12.82;;;15.00;95.00;;;;;;2056771;28;20124;-91
2022/07/01 03:00:52;;;;;;;14.63;12.68;;;14.90;94.90;;;;;;2057992;28;20042;-90
2022/07/01 03:02:11;;;;;;;15.13;12.45;;;14.90;94.90;;;;;;2057855;28;20499;-90
2022/07/01 03:03:30;;;;;;;15.25;13.05;;;14.90;95.00;;;;;;2058072;28;20047;-89
2022/07/01 03:04:51;;;;;;;15.55;12.52;;;14.90;95.00;;;;;;2045349;29;20063;-89
2022/07/01 03:06:10;;;;;;;14.15;12.15;;;14.90;95.00;;;;;;2052783;28;20079;-90
2022/07/01 03:07:30;;;;;;;15.48;12.63;;;14.90;95.00;;;;;;2047203;29;20043;-88
2022/07/01 03:08:49;;;;;;;14.95;12.93;;;14.90;95.00;;;;;;2046571;29;20047;-90
2022/07/01 03:10:09;;;;;;;16.10;12.85;;;14.80;95.00;;;;;;2044725;29;20118;-89
2022/07/01 03:11:29;;;;;;;15.25;12.93;;;14.90;95.00;;;;;;2055007;28;20038;-89
2022/07/01 03:12:48;;;;;;;15.10;12.50;;;14.90;95.00;;;;;;2041562;29;20048;-89
2022/07/01 03:14:08;;;;;;;15.27;12.98;;;14.90;95.00;;;;;;2055752;28;20042;-90
2022/07/01 03:15:27;;;;;;;16.80;13.38;;;14.90;95.00;;;;;;2049559;29;20039;-90
2022/07/01 03:16:49;;;;;;;16.23;13.00;;;14.90;95.00;;;;;;2051098;28;20517;-89
2022/07/01 03:18:08;;;;;;;14.77;12.80;;;14.90;95.00;;;;;;2054586;28;20042;-89
2022/07/01 03:19:28;;;;;;;15.50;12.82;;;14.90;95.00;;;;;;2054278;28;20445;-90
2022/07/01 03:20:49;;;;;;;14.70;12.07;;;14.90;95.00;;;;;;2046164;29;20075;-90
2022/07/01 03:22:08;;;;;;;;;;;15.00;95.00;;;;;;2054729;28;20043;-89
2022/07/01 03:23:27;;;;;;;13.23;11.30;;;15.00;95.00;;;;;;2054169;28;19914;-90
2022/07/01 03:24:47;;;;;;;13.82;11.55;;;15.00;94.90;;;;;;2056887;28;20066;-90
2022/07/01 03:26:06;;;;;;;14.82;11.93;;;15.00;94.90;;;;;;2057938;28;20043;-90
2022/07/01 03:27:26;;;;;;;14.48;11.95;;;14.90;94.90;;;;;;2056989;28;20043;-89
2022/07/01 03:28:45;;;;;;;14.95;12.32;;;14.90;94.90;;;;;;2057730;28;20050;-90
2022/07/01 03:30:05;;;;;;;15.40;12.38;;;14.90;94.90;;;;;;2056598;28;20043;-89
2022/07/01 03:31:25;;;;;;;14.75;12.60;;;14.90;95.00;;;;;;2054215;28;20046;-90
2022/07/01 03:32:44;;;;;;;15.48;12.68;;;14.90;95.00;;;;;;2052557;28;20933;-89
2022/07/01 03:34:04;;;;;;;14.15;12.10;;;14.90;95.00;;;;;;2049095;29;20402;-89
2022/07/01 03:35:35;;;;;;;17.08;13.88;;;14.80;95.00;;;;;;2050142;29;20035;-89
2022/07/01 03:36:54;;;;;;;16.10;13.88;;;14.90;95.00;;;;;;2050691;29;20043;-90
2022/07/01 03:38:14;;;;;;;17.08;13.73;;;14.80;95.00;;;;;;2050695;29;20031;-90
2022/07/01 03:39:35;;;;;;;15.68;13.18;;;14.80;95.00;;;;;;2049818;29;20051;-90
2022/07/01 03:40:53;;;;;;;18.70;13.40;;;14.80;95.00;;;;;;2050538;28;20047;-90
2022/07/01 03:42:14;;;;;;;16.75;13.90;;;14.80;95.00;;;;;;2056482;28;20042;-89
2022/07/01 03:43:33;;;;;;;15.23;13.35;;;14.80;95.00;;;;;;2054131;28;20042;-89
2022/07/01 03:44:52;;;;;;;17.13;13.52;;;14.80;95.00;;;;;;2046191;29;20078;-90
2022/07/01 03:46:12;;;;;;;15.85;12.82;;;14.70;94.90;;;;;;2050695;28;20047;-90
2022/07/01 03:47:31;;;;;;;16.15;13.90;;;14.70;95.20;;;;;;2046127;29;20043;-89
2022/07/01 03:48:50;;;;;;;16.08;12.90;;;14.70;95.00;;;;;;2054715;28;20035;-90
2022/07/01 03:50:09;;;;;;;14.95;13.00;;;14.70;95.00;;;;;;2055332;28;20039;-90
2022/07/01 03:51:28;;;;;;;15.52;13.15;;;14.70;95.00;;;;;;2049647;29;20047;-90
2022/07/01 03:52:47;;;;;;;15.55;12.82;;;14.70;95.10;;;;;;2049438;29;20067;-90
2022/07/01 03:55:44;;;;;;;16.02;13.13;;;14.70;95.10;;;;;;2049733;29;20044;-89
2022/07/01 03:57:08;;;;;;;15.88;13.25;;;14.70;95.00;;;;;;2040927;29;20039;-89
2022/07/01 03:58:28;;;;;;;15.02;12.20;;;14.70;95.10;;;;;;2049356;28;20537;-89
2022/07/01 03:59:47;;;;;;;15.60;12.38;;;14.70;95.10;;;;;;2061877;28;20069;-90
2022/07/01 04:01:06;;;;;;;16.00;13.18;;;14.70;95.10;;;;;;2048203;28;20510;-90
2022/07/01 04:02:25;;;;;;;16.17;13.40;;;14.70;95.00;;;;;;2049222;29;20043;-90
2022/07/01 04:03:44;;;;;;;15.48;12.85;;;14.70;95.00;;;;;;2056830;28;20054;-90
2022/07/01 04:05:04;;;;;;;16.20;13.23;;;14.70;95.00;;;;;;2049943;28;20026;-90
2022/07/01 04:06:23;;;;;;;14.85;12.63;;;14.70;95.00;;;;;;2057239;28;20038;-90
2022/07/01 04:07:42;;;;;;;15.00;12.57;;;14.80;95.00;;;;;;2056941;28;20087;-90
2022/07/01 04:09:02;;;;;;;15.27;12.80;;;14.80;95.00;;;;;;2046036;29;20047;-90
2022/07/01 04:10:22;;;;;;;14.15;12.35;;;14.80;95.00;;;;;;2050780;28;20039;-89
2022/07/01 04:11:42;;;;;;;14.95;12.63;;;14.90;95.00;;;;;;2046308;29;20066;-89
2022/07/01 04:13:02;;;;;;;15.65;13.32;;;14.90;95.00;;;;;;2049389;28;20055;-89
2022/07/01 04:14:22;;;;;;;14.65;12.50;;;14.90;94.90;;;;;;2049367;29;20509;-90
2022/07/01 04:15:41;;;;;;;16.67;12.90;;;14.90;94.90;;;;;;2056685;28;20046;-90
2022/07/01 04:17:00;;;;;;;16.25;13.30;;;14.90;94.90;;;;;;2056975;28;20497;-90
2022/07/01 04:18:19;;;;;;;16.20;13.43;;;15.00;94.90;;;;;;2057269;28;20035;-89
2022/07/01 04:19:39;;;;;;;15.80;12.90;;;15.00;94.90;;;;;;2056997;28;20055;-89
2022/07/01 04:22:37;;;;;;;15.95;12.98;;;15.00;94.80;;;;;;2057767;28;20042;-90
2022/07/01 04:23:58;;;;;;;14.20;12.27;;;15.00;94.80;;;;;;2059246;28;20572;-90
2022/07/01 04:25:18;;;;;;;17.52;13.32;;;15.00;94.80;;;;;;2050626;29;20477;-89
2022/07/01 04:26:37;;;;;;;14.85;12.02;;;15.00;94.90;;;;;;2044813;29;20394;-90
2022/07/01 04:27:57;;;;;;;15.57;12.57;;;15.00;94.80;;;;;;2047637;29;20123;-89
2022/07/01 04:29:17;;;;;;;14.85;12.50;;;15.00;94.80;;;;;;2044730;29;20047;-90
2022/07/01 04:30:37;;;;;;;15.60;12.35;;;15.00;94.80;;;;;;2056096;28;20035;-90
2022/07/01 04:31:58;;;;;;;15.73;12.48;;;15.00;94.80;;;;;;2049651;28;20035;-90
2022/07/01 04:33:17;;;;;;;;;;;15.00;94.80;;;;;;2048466;29;20051;-89
2022/07/01 04:34:36;;;;;;;15.15;11.80;;;15.00;94.70;;;;;;2045114;29;19918;-89
2022/07/01 04:35:55;;;;;;;14.82;11.32;;;15.00;94.70;;;;;;2053025;29;20507;-90
2022/07/01 04:37:15;;;;;;;14.43;11.70;;;15.00;94.70;;;;;;2048900;29;20043;-90
2022/07/01 04:38:34;;;;;;;16.15;12.23;;;15.10;94.70;;;;;;2046220;29;20043;-90
2022/07/01 04:39:53;;;;;;;14.05;11.75;;;15.10;94.70;;;;;;2049517;29;20048;-90
2022/07/01 04:42:50;;;;;;;16.60;12.60;;;15.10;94.70;;;;;;2051239;29;20039;-89
2022/07/01 04:44:10;;;;;;;15.57;12.48;;;15.10;94.70;;;;;;2045962;29;20103;-90
2022/07/01 04:45:29;;;;;;;15.75;12.05;;;15.10;94.70;;;;;;2051858;28;20046;-89
2022/07/01 04:46:48;;;;;;;15.07;12.15;;;15.10;94.70;;;;;;2055367;28;20039;-90
2022/07/01 04:48:07;;;;;;;15.18;11.88;;;15.10;94.70;;;;;;2048232;29;20047;-89
2022/07/01 04:49:27;;;;;;;17.13;12.65;;;15.10;94.70;;;;;;2055187;28;20394;-89
2022/07/01 04:50:47;;;;;;;17.38;13.38;;;15.10;95.00;;;;;;2050577;29;20510;-91
2022/07/01 04:52:06;;;;;;;17.23;13.65;;;15.10;94.70;;;;;;2050621;28;20039;-90
2022/07/01 04:53:25;;;;;;;18.58;13.68;;;15.10;94.70;;;;;;2047492;29;20043;-90
2022/07/01 04:54:44;;;;;;;17.40;12.68;;;15.10;95.00;;;;;;2059943;28;20042;-90
2022/07/01 04:56:04;;;;;;;16.40;12.93;;;15.10;94.70;;;;;;2061998;28;20146;-90
2022/07/01 04:57:23;;;;;;;18.55;13.73;;;15.10;94.70;;;;;;2058451;28;20043;-90
2022/07/01 04:58:42;;;;;;;17.67;13.55;;;15.10;94.70;;;;;;2047274;29;20513;-89
2022/07/01 05:00:02;;;;;;;17.05;12.75;;;15.10;94.70;;;;;;2060174;28;20408;-90
2022/07/01 05:01:22;;;;;;;16.75;13.38;;;15.10;94.80;;;;;;2061709;28;20038;-89
2022/07/01 05:02:42;;;;;;;18.73;13.43;;;15.10;95.10;;;;;;2052822;28;20592;-89
2022/07/01 05:04:01;;;;;;;17.83;13.73;;;15.00;94.80;;;;;;2054560;28;20420;-89
2022/07/01 05:05:20;;;;;;;19.15;14.27;;;15.00;94.80;;;;;;2050832;29;20031;-89
2022/07/01 05:06:39;;;;;;;17.40;13.50;;;15.00;94.80;;;;;;2057125;28;20440;-89
2022/07/01 05:07:58;;;;;;;17.70;12.65;;;15.00;94.80;;;;;;2054950;28;20448;-90
2022/07/01 05:09:17;;;;;;;19.05;14.15;;;15.00;94.80;;;;;;2054412;28;20134;-90
2022/07/01 05:10:36;;;;;;;16.80;13.13;;;15.00;94.70;;;;;;2055393;28;20457;-91
2022/07/01 05:11:56;;;;;;;16.45;13.15;;;15.10;94.80;;;;;;2046659;29;20505;-90
2022/07/01 05:13:15;;;;;;;18.35;13.63;;;15.10;94.70;;;;;;2051745;28;20369;-90
2022/07/01 05:14:34;;;;;;;18.75;13.57;;;15.10;94.70;;;;;;2055155;28;20055;-88
2022/07/01 05:15:54;;;;;;;18.50;12.57;;;15.10;94.70;;;;;;2063802;28;20034;-90
2022/07/01 05:17:13;;;;;;;16.27;12.27;;;15.10;94.70;;;;;;2066755;28;20497;-90
2022/07/01 05:22:01;;;;;;;15.88;11.60;;;15.10;94.60;;;;;;2066964;28;20034;-89
2022/07/01 05:23:20;;;;;;;15.75;12.15;;;15.10;94.90;;;;;;2050593;29;20055;-91
2022/07/01 05:24:40;;;;;;;15.75;11.52;;;15.10;94.60;;;;;;2057394;28;20501;-90
2022/07/01 05:25:59;;;;;;;16.92;12.73;;;15.10;94.60;;;;;;2053117;29;20071;-90
2022/07/01 05:27:18;;;;;;;16.48;12.95;;;15.10;94.60;;;;;;2047012;29;20031;-90
2022/07/01 05:28:37;;;;;;;17.85;12.13;;;15.10;94.50;;;;;;2047111;29;20098;-90
2022/07/01 05:29:56;;;;;;;16.35;12.57;;;15.10;94.50;;;;;;2039948;28;20035;-90
2022/07/01 05:31:16;;;;;;;17.17;11.95;;;15.10;94.50;;;;;;2047247;29;20040;-90
2022/07/01 05:32:35;;;;;;;16.05;11.38;;;15.20;94.60;;;;;;2055579;28;20039;-90
2022/07/01 05:33:54;;;;;;;15.68;11.80;;;15.20;94.50;;;;;;2050238;28;20047;-90
2022/07/01 05:35:14;;;;;;;16.63;11.68;;;15.10;94.50;;;;;;2048475;29;20051;-90
2022/07/01 05:36:34;;;;;;;16.02;10.88;;;15.20;94.50;;;;;;2058856;28;20027;-89
2022/07/01 05:37:53;;;;;;;16.85;11.60;;;15.20;94.50;;;;;;2050360;29;20080;-89
2022/07/01 05:39:12;;;;;;;14.60;10.80;;;15.20;94.50;;;;;;2062689;28;20030;-90
2022/07/01 05:40:31;;;;;;;15.70;11.05;;;15.20;94.50;;;;;;2066519;28;20097;-90
2022/07/01 05:41:50;;;;;;;18.20;12.10;;;15.20;94.50;;;;;;2064314;28;20486;-89
2022/07/01 05:43:09;;;;;;;14.88;10.88;;;15.30;94.40;;;;;;2066894;28;20122;-90
2022/07/01 05:44:28;;;;;;;17.20;11.65;;;15.30;94.40;;;;;;2058070;28;20031;-90
2022/07/01 05:45:47;;;;;;;17.48;11.82;;;15.30;94.40;;;;;;2063228;28;20038;-89
2022/07/01 05:47:06;;;;;;;15.05;11.60;;;15.30;94.40;;;;;;2062942;28;20026;-90
2022/07/01 05:48:26;;;;;;;16.08;11.40;;;15.30;94.60;;;;;;2065397;28;20042;-89
2022/07/01 05:49:46;;;;;;;15.82;11.40;;;15.30;94.30;;;;;;2051976;28;20039;-90
2022/07/01 05:51:05;;;;;;;15.20;11.45;;;15.30;94.30;;;;;;2043555;29;20092;-90
2022/07/01 05:52:25;;;;;;;16.40;11.88;;;15.30;94.30;;;;;;2055586;28;20545;-89
2022/07/01 05:53:47;;;;;;;17.05;12.10;;;15.30;94.30;;;;;;2047165;29;20518;-90
2022/07/01 05:55:06;;;;;;;16.00;11.45;;;15.30;94.20;;;;;;2062667;28;20042;-90
2022/07/01 05:56:26;;;;;;;15.73;11.15;;;15.30;94.20;;;;;;2049607;29;20031;-89
2022/07/01 05:57:45;;;;;;;15.13;11.50;;;15.30;94.20;;;;;;2043789;29;20517;-89
2022/07/01 05:59:04;;;;;;;16.63;12.20;;;15.30;94.20;;;;;;2050889;28;20039;-90
2022/07/01 06:00:23;;;;;;;15.05;11.43;;;15.30;94.20;;;;;;2049812;28;20043;-89
2022/07/01 06:01:43;;;;;;;15.23;11.18;;;15.30;94.20;;;;;;2048858;29;20035;-88
2022/07/01 06:03:03;;;;;;;17.45;11.95;;;15.30;94.20;;;;;;2056074;28;20051;-89
2022/07/01 06:04:22;;;;;;;14.52;11.45;;;15.30;94.20;;;;;;2064986;28;20038;-88
2022/07/01 06:05:43;;;;;;;15.98;11.60;;;15.30;94.20;;;;;;2057696;28;20107;-89
2022/07/01 06:07:03;;;;;;;;;;;15.30;94.20;;;;;;2049726;29;20429;-93
2022/07/01 06:08:22;;;;;;;17.08;11.38;;;15.30;94.10;;;;;;2052896;28;19913;-91
2022/07/01 06:09:41;;;;;;;17.30;12.00;;;15.30;94.40;;;;;;2054305;28;20046;-91
2022/07/01 06:11:00;;;;;;;15.93;12.18;;;15.30;94.10;;;;;;2061153;28;20482;-91
2022/07/01 06:12:19;;;;;;;17.98;12.00;;;15.30;94.10;;;;;;2057466;28;20039;-90
2022/07/01 06:13:23;;;;;;;16.88;12.27;;;15.40;94.10;;;;;;2046124;28;20042;-90
2022/07/01 06:14:23;;;;;;;16.42;11.65;;;15.40;94.10;;;;;;2043169;28;20059;-88
2022/07/01 06:15:24;;;;;;;17.23;11.75;;;15.40;94.10;;;;;;2034047;29;20040;-89
2022/07/01 06:16:25;;;;;;;17.52;13.23;;;15.40;94.10;;;;;;2041967;28;20042;-89
2022/07/01 06:17:26;;;;;;;16.23;11.90;;;15.40;94.10;;;;;;2065694;28;20420;-87
2022/07/01 06:18:26;;;;;;;16.67;12.60;;;15.40;94.10;;;;;;2057773;28;20043;-88
2022/07/01 06:19:27;;;;;;;19.52;13.52;;;15.40;94.10;;;;;;2067112;28;20046;-89
2022/07/01 06:20:28;;;;;;;18.45;12.93;;;15.40;94.10;;;;;;2061861;28;20080;-89
2022/07/01 06:21:29;;;;;;;16.95;12.10;;;15.40;94.10;;;;;;2064966;28;20019;-91
2022/07/01 06:22:29;;;;;;;17.00;12.60;;;15.40;94.10;;;;;;2058149;28;20058;-90
2022/07/01 06:23:30;;;;;;;17.55;12.75;;;15.40;94.10;;;;;;2050601;29;20051;-91
2022/07/01 06:24:30;;;;;;;17.25;12.52;;;15.50;94.10;;;;;;2049745;29;20035;-91
2022/07/01 06:25:31;;;;;;;17.45;12.02;;;15.50;94.10;;;;;;2049856;29;20502;-89
2022/07/01 06:26:32;;;;;;;16.63;11.93;;;15.50;94.10;;;;;;2056880;28;20030;-91
2022/07/01 06:27:37;;;;;;;17.42;12.50;;;15.50;94.10;;;;;;2054287;28;20093;-89
2022/07/01 06:28:37;;;;;;;17.50;13.30;;;15.50;94.00;;;;;;2042349;28;20043;-88
2022/07/01 06:29:38;;;;;;;17.52;12.50;;;15.50;94.00;;;;;;2055711;28;20486;-89
2022/07/01 06:30:43;;;;;;;15.98;12.25;;;15.50;94.00;;;;;;2054212;28;20038;-90
2022/07/01 06:31:43;;;;;;;16.92;12.70;;;15.50;94.00;;;;;;2054005;28;20043;-88
2022/07/01 06:32:44;;;;;;;16.45;11.95;;;15.50;94.10;;;;;;2049483;29;20478;-88
2022/07/01 06:33:44;;;;;;;15.63;11.82;;;15.50;94.10;;;;;;2053781;28;20050;-88
2022/07/01 06:34:45;;;;;;;15.88;12.27;;;15.50;94.10;;;;;;2050013;29;20039;-88
2022/07/01 06:35:46;;;;;;;17.02;11.75;;;15.50;94.00;;;;;;2048962;29;20154;-88
2022/07/01 06:36:46;;;;;;;18.30;12.85;;;15.50;94.00;;;;;;2046382;28;20043;-88
2022/07/01 06:37:47;;;;;;;16.25;12.38;;;15.60;94.00;;;;;;2057719;28;20047;-89
2022/07/01 06:38:48;;;;;;;16.67;12.10;;;15.60;94.00;;;;;;2049729;29;20486;-88
2022/07/01 06:39:48;;;;;;;15.82;11.98;;;15.60;94.00;;;;;;2033474;29;20032;-89
2022/07/01 06:42:08;;;;;;;16.75;11.93;;;15.60;94.00;;;;;;2044011;29;20149;-89
2022/07/01 06:43:09;;;;;;;17.13;12.60;;;15.70;94.00;;;;;;2049631;29;20043;-88
2022/07/01 06:44:09;;;;;;;16.30;11.98;;;15.70;93.90;;;;;;2050673;28;20058;-91
2022/07/01 06:45:11;;;;;;;15.93;11.73;;;15.60;93.90;;;;;;2041202;29;20538;-88
2022/07/01 06:46:11;;;;;;;16.73;11.90;;;15.70;93.90;;;;;;2048842;28;20431;-91
2022/07/01 06:47:12;;;;;;;15.60;11.57;;;15.70;93.80;;;;;;2054897;28;20098;-90
2022/07/01 06:48:14;;;;;;;15.57;11.00;;;15.70;93.80;;;;;;2049036;28;20094;-88